Logo AVAMET
Benvolgut visitant, si us plau, ingressa Recuperar contrasenya
AVAMET paisatges

València Penya-roja

Dades diàries. Acumulats / Últims 30 dies disponibles

Data Temperatura (°C) Humitat rel. (%) Pressió rel. (hPa) Vent (km/h) Precipitació
Mínima Mitjana Màxima Amplitud
tèrmica
Mínima Mitjana Màxima Mínima Mitjana Màxima Predom. Mitjana Ràfega
màxima
Total
(mm)
Índex-n
Mínima Mitjana Màxima Mínima Mitjana Màxima n
0 a 1
P0 max
mm 5'
Dades mensuals acumulades fins l'últim dia disponible
11/2020 8,8 13,5 18,2 16,6 17,4 20,6 24,9 16,1 40 76 99 999 1.017 1.026   6,6 55,1 289,7
Dades anuals acumulades fins l'últim dia disponible
2020 4,7 16,6 26,4 19,7 9,3 23,3 31,9 27,2 13 68 99 986 1.013 1.029   7,3 102,0 622,7
Últims 30 dies disponibles
29-11-2020 12,4     15,3     20,8 8,4 53 70 81 1.006 1.011 1.015 NW 5,9 20,9 0,0
28-11-2020 12,0     14,0     19,1 7,1 60 82 92 999 1.001 1.006 NW 5,7 19,4 9,0
27-11-2020 12,4     16,0     18,0 5,6 73 88 97 1.000 1.003 1.007 ENE 11,9 55,1 74,3
26-11-2020 14,1     16,2     18,2 4,1 81 86 91 1.007 1.009 1.011 NE 8,3 34,2 1,0 0,68 0,40
25-11-2020 8,8     13,4     19,6 10,8 42 71 81 1.010 1.012 1.015 NNW 4,2 15,8 0,0
24-11-2020 9,3     13,3     18,3 9,0 51 74 82 1.015 1.018 1.022 NW 4,7 14,8 0,0
23-11-2020 10,6     13,7     18,6 8,0 53 71 79 1.021 1.023 1.025 NW 5,4 17,3 0,0
22-11-2020 9,2     13,4     18,7 9,5 51 66 76 1.021 1.023 1.024 NW 6,8 22,0 0,0
21-11-2020 10,5     14,4     18,8 8,3 43 66 75 1.022 1.023 1.025 NNW 5,3 17,3 0,0
20-11-2020 13,5     16,4     19,5 6,0 45 62 85 1.021 1.023 1.024 SW 5,1 27,0 0,0
19-11-2020 15,1     18,3     23,5 8,4 53 77 90 1.023 1.024 1.026 WNW 5,6 22,0 0,0
18-11-2020 16,5     18,0     22,0 5,5 61 77 85 1.021 1.022 1.024 NNW 3,5 15,8 0,0
17-11-2020 15,1     17,8     21,6 6,5 63 77 86 1.020 1.021 1.023 N 4,3 15,8 0,0
16-11-2020 18,2     20,3     23,5 5,3 55 69 76 1.013 1.017 1.021 WNW 7,1 27,0 0,0
15-11-2020 16,5     19,9     24,0 7,5 49 70 93 1.013 1.015 1.016 WNW 12,3 46,4 0,0
14-11-2020 15,4     16,9     19,6 4,2 71 86 92 1.015 1.016 1.017 W 3,2 17,3 0,0
13-11-2020 14,3     16,9     19,6 5,3 60 76 91 1.015 1.016 1.017 NNW 3,7 13,3 0,0
12-11-2020 12,5     16,0     21,2 8,7 52 73 85 1.016 1.018 1.019 NW 4,0 19,4 0,0
11-11-2020 13,0     16,8     21,6 8,6 59 78 89 1.018 1.020 1.023 W 5,2 19,4 0,0
10-11-2020 13,6     17,3     21,7 8,1 51 73 90 1.018 1.020 1.023 NNW 5,6 20,9 0,0
09-11-2020 13,3     16,8     21,4 8,1 58 74 90 1.015 1.017 1.019 NW 6,4 19,4 0,0
08-11-2020 12,6     16,7     22,5 9,9 54 74 83 1.016 1.018 1.020 WNW 4,1 20,9 0,1
07-11-2020 15,1     18,0     21,7 6,6 64 81 99 1.012 1.016 1.019 N 8,1 41,8 9,3
06-11-2020 16,7     18,8     19,5 2,8 94 98 99 1.013 1.015 1.018 NNE 13,1 40,3 0,0
05-11-2020 13,4     15,5     17,4 4,0 88 95 99 1.014 1.017 1.019 NE 16,9 55,1 171,8 0,58 12,80
04-11-2020 13,2     15,2     18,7 5,5 58 78 96 1.014 1.016 1.019 NNE 11,8 47,9 24,2 0,48 0,70
03-11-2020 15,0     18,1     20,6 5,6 64 78 88 1.017 1.019 1.020 NNE 6,2 31,7 0,0
02-11-2020 14,4     18,4     23,3 8,9 43 73 90 1.015 1.017 1.018 NNE 4,4 17,3 0,0
01-11-2020 14,9     18,8     24,9 10,0 40 74 88 1.017 1.018 1.020 NNW 3,3 17,3 0,0
31-10-2020 13,2     17,8     22,0 8,8 61 81 92 1.017 1.019 1.021 N 4,4 15,8 0,0
Últims 13 mesos disponibles
10/2020 11,8 15,6 20,8 19,5 21,4 23,9 31,9 20,1 37 58 83 993 1.012 1.020 NW 4,9 77,0 4,6
09/2020 15,5 20,6 23,8 24,0 23,8 27,6 31,6 16,1 33 62 79 1.006 1.012 1.018 E 6,0 56,2 15,3
08/2020 18,9 24,3 26,4 27,0 25,4 29,6 31,7 12,8 44 69 81 999 1.009 1.014 E 5,3 37,8 1,0
07/2020 21,1 23,9 26,1 26,3 26,4 28,8 31,9 10,8 49 73 79 1.006 1.011 1.015 E 6,7 39,2 13,6
06/2020 16,2 20,3 23,7 23,2 20,2 26,2 31,3 15,1 33 69 81 1.000 1.009 1.016 ENE 8,3 64,8 24,9
05/2020 13,8 18,1 20,9 21,2 20,1 24,5 31,6 17,8 45 66 81 1.000 1.012 1.022 ENE 8,3 62,3 18,2
04/2020 10,5 13,9 18,4 16,6 16,0 19,7 26,3 15,8 41 74 94 999 1.010 1.020 ENE 7,3 62,3 43,6
03/2020 7,6 11,8 17,0 14,7 12,8 18,1 24,7 17,1 36 67 94 1.001 1.011 1.021 NE 10,8 102,0 55,6
02/2020 8,4 11,6 15,0 15,3 14,9 20,4 27,5 19,1 42 68 89 1.007 1.019 1.027 NW 6,8 60,1 1,8
01/2020 4,7 8,9 15,5 12,2 9,3 16,7 22,3 17,6 50 70 90 1.010 1.019 1.026 NW 8,8 72,4 154,4
12/2019 7,4 11,9 18,5 14,7 13,8 18,6 24,8 17,4 47 66 92 996 1.013 1.027 NW 11,8 104,0 84,8
11/2019 6,4 13,0 21,4 16,3 15,8 20,3 29,1 22,7 36 52 76 992 1.004 1.012 NW 15,4 76,0 4,7
10/2019 12,7 17,4 21,7 20,9 17,6 25,6 35,1 22,4 40 65 80 1.002 1.010 1.016 WNW 7,0 56,2 24,3
Tots els anys disponibles
2019 2,7 15,6 27,3 18,9 13,2 22,8 40,9 38,2 27 63 96 988 1.011 1.028 NW 9,1 104,0 353,2
2018 3,9 15,9 26,6 18,9 9,3 22,5 35,6 31,7 33 64 96 992 1.014 1.035 E 9,1 92,9 720,1
2017 2,4 15,8 26,3 19,0 10,2 22,6 36,1 33,7 52 63 71 1.016 1.019 1.023 N 8,4 90,7 321,7
2016 4,3 16,2 26,7 19,0 11,4 23,2 35,8 31,5 51 65 74 1.015 1.019 1.031 N 8,3 100,0 601,3
Temperatura (°C)
Humitat relativa (%)
Velocitat del vent i ràfega màxima (km/h)
Direcció del vent (°)
Precipitació (mm)
Nota sobre les dades: s'avisa a l'usuari de la provisionalitat i no oficialitat d'aquestes dades
Logo AVAMET blanc
Web allotjada a Sollutia
Llicència de Creative CommonsLa web d'AVAMET i els seus continguts estan subjectes a una llicència de
Reconeixement - No Comercial - Compartir igual
Avís legal - Política de privacitat - Política de cookies
NOVES ESTACIONS: València - l'Olivereta (Soci), Xixona - Carrasqueta/Bugaia (Soci), l'Alcúdia de Crespins/Canals - la Muntanyeta (Soci), Utiel - est (Soci), Xàbia - Cansalades (Soci), Alginet (Soci), Quatretondeta (Ajuntament Soci) Enguera - Benali (Soci/ADENE), la Vall d'Alba - sud (Ajuntament Soci), El Fondó dels Frares (Estació pròpia d'AVAMET nº34) - - -